createdAt,value
2022-11-21T00:01:22.425Z,0.50
2022-11-21T00:03:51.123Z,0.55
2022-11-21T00:06:19.260Z,0.50
2022-11-21T00:08:47.617Z,0.60
2022-11-21T00:11:15.905Z,0.40
2022-11-21T00:13:43.881Z,0.70
2022-11-21T00:16:13.646Z,0.50
2022-11-21T00:18:44.125Z,0.50
2022-11-21T00:21:15.422Z,0.45
2022-11-21T00:23:43.583Z,0.47
2022-11-21T00:26:13.100Z,0.50
2022-11-21T00:28:41.626Z,0.40
2022-11-21T00:31:09.611Z,0.55
2022-11-21T00:33:39.183Z,0.68
2022-11-21T00:36:09.694Z,0.40
2022-11-21T00:38:38.205Z,0.45
2022-11-21T00:41:06.679Z,0.50
2022-11-21T00:43:34.857Z,0.40
2022-11-21T00:46:03.381Z,0.60
2022-11-21T00:48:32.772Z,0.77
2022-11-21T00:51:01.569Z,0.50
2022-11-21T00:53:31.311Z,0.40
2022-11-21T00:55:59.828Z,0.60
2022-11-21T00:58:28.066Z,0.60
2022-11-21T01:01:04.583Z,0.70
2022-11-21T01:03:34.431Z,0.70
2022-11-21T01:06:04.050Z,0.50
2022-11-21T01:08:33.539Z,0.60
2022-11-21T01:11:05.056Z,0.90
2022-11-21T01:13:33.255Z,0.40
2022-11-21T01:16:05.537Z,0.65
2022-11-21T01:18:33.650Z,0.75
2022-11-21T01:21:02.067Z,0.70
2022-11-21T01:23:30.357Z,1.00
2022-11-21T01:26:03.964Z,1.10
2022-11-21T01:28:32.426Z,2.58
2022-11-21T01:31:05.872Z,2.17
2022-11-21T01:33:34.500Z,2.40
2022-11-21T01:36:10.079Z,2.70
2022-11-21T01:38:38.269Z,2.70
2022-11-21T01:41:07.983Z,2.65
2022-11-21T01:43:36.292Z,2.53
2022-11-21T01:46:11.407Z,2.60
2022-11-21T01:48:43.716Z,3.35
2022-11-21T01:51:14.830Z,2.42
2022-11-21T01:53:45.396Z,2.72
2022-11-21T01:56:15.976Z,2.58
2022-11-21T01:58:46.828Z,2.67
2022-11-21T02:01:15.025Z,3.58
2022-11-21T02:03:44.733Z,2.95
2022-11-21T02:06:14.167Z,2.90
2022-11-21T02:08:45.312Z,3.13
2022-11-21T02:11:21.569Z,2.75
2022-11-21T02:13:49.592Z,2.75
2022-11-21T02:16:17.454Z,3.10
2022-11-21T02:18:45.467Z,3.08
2022-11-21T02:21:20.503Z,3.08
2022-11-21T02:24:00.073Z,2.80
2022-11-21T02:26:29.891Z,2.45
2022-11-21T02:28:58.459Z,2.97
2022-11-21T02:31:26.370Z,2.85
2022-11-21T02:33:54.253Z,2.60
2022-11-21T02:36:44.298Z,3.10
2022-11-21T02:39:18.303Z,3.13
2022-11-21T02:41:55.623Z,3.58
2022-11-21T02:44:27.751Z,2.97
2022-11-21T02:46:56.002Z,2.83
2022-11-21T02:49:33.238Z,3.42
2022-11-21T02:52:01.132Z,3.08
2022-11-21T02:54:29.324Z,3.22
2022-11-21T02:56:58.796Z,2.72
2022-11-21T02:59:26.695Z,3.10
2022-11-21T03:01:54.603Z,3.35
2022-11-21T03:04:22.511Z,3.58
2022-11-21T03:06:50.455Z,2.90
2022-11-21T03:09:18.329Z,3.10
2022-11-21T03:11:46.194Z,2.83
2022-11-21T03:14:15.432Z,2.97
2022-11-21T03:16:43.306Z,3.47
2022-11-21T03:19:11.185Z,2.90
2022-11-21T03:21:39.047Z,3.20
2022-11-21T03:24:08.340Z,3.67
2022-11-21T03:26:36.206Z,3.15
2022-11-21T03:29:04.115Z,2.97
2022-11-21T03:31:33.368Z,3.28
2022-11-21T03:34:01.251Z,3.45
2022-11-21T03:36:29.187Z,2.92
2022-11-21T03:38:57.790Z,3.20
2022-11-21T03:41:31.795Z,2.67
2022-11-21T03:44:01.098Z,2.78
2022-11-21T03:46:29.391Z,3.05
2022-11-21T03:48:58.996Z,2.80
2022-11-21T03:51:27.311Z,3.05
2022-11-21T03:53:55.713Z,3.08
2022-11-21T03:56:23.732Z,3.28
2022-11-21T03:58:51.838Z,3.30
2022-11-21T04:01:20.343Z,3.30
2022-11-21T04:03:48.715Z,3.72
2022-11-21T04:06:19.950Z,3.20
2022-11-21T04:08:48.509Z,3.10
2022-11-21T04:11:16.841Z,3.47
2022-11-21T04:13:44.811Z,3.20
2022-11-21T04:16:12.763Z,3.20
2022-11-21T04:18:40.679Z,2.97
2022-11-21T04:21:09.699Z,3.22
2022-11-21T04:23:39.007Z,3.20
2022-11-21T04:26:07.011Z,3.15
2022-11-21T04:28:34.943Z,3.50
2022-11-21T04:31:10.292Z,3.17
2022-11-21T04:33:38.857Z,3.47
2022-11-21T04:36:07.148Z,3.28
2022-11-21T04:38:35.261Z,2.83
2022-11-21T04:41:04.920Z,3.13
2022-11-21T04:43:32.966Z,3.35
2022-11-21T04:46:00.835Z,3.10
2022-11-21T04:48:28.906Z,3.47
2022-11-21T04:50:56.825Z,2.88
2022-11-21T04:53:24.776Z,3.20
2022-11-21T04:55:52.649Z,2.75
2022-11-21T04:58:21.965Z,2.88
2022-11-21T05:00:49.854Z,2.97
2022-11-21T05:03:18.002Z,2.63
2022-11-21T05:05:45.978Z,3.30
2022-11-21T05:08:13.972Z,2.55
2022-11-21T05:10:55.718Z,3.30
2022-11-21T05:13:25.663Z,2.78
2022-11-21T05:15:57.987Z,2.80
2022-11-21T05:18:26.119Z,3.03
2022-11-21T05:20:53.980Z,2.67
2022-11-21T05:23:21.900Z,2.78
2022-11-21T05:25:49.908Z,2.75
2022-11-21T05:28:17.901Z,3.00
2022-11-21T05:30:47.179Z,3.03
2022-11-21T05:33:15.204Z,2.83
2022-11-21T05:35:43.745Z,2.83
2022-11-21T05:38:12.130Z,2.85
2022-11-21T05:40:40.247Z,2.83
2022-11-21T05:43:26.067Z,2.63
2022-11-21T05:45:55.301Z,2.97
2022-11-21T05:48:23.219Z,2.63
2022-11-21T05:50:51.490Z,3.20
2022-11-21T05:53:19.577Z,3.33
2022-11-21T05:55:47.628Z,3.05
2022-11-21T05:58:15.885Z,2.85
2022-11-21T06:00:43.775Z,3.15
2022-11-21T06:03:27.528Z,2.83
2022-11-21T06:06:01.495Z,2.70
2022-11-21T06:08:30.612Z,3.30
2022-11-21T06:10:58.502Z,2.95
2022-11-21T06:13:26.446Z,3.20
2022-11-21T06:15:57.118Z,2.95
2022-11-21T06:18:26.515Z,3.10
2022-11-21T06:20:54.631Z,2.95
2022-11-21T06:23:22.575Z,2.67
2022-11-21T06:25:58.179Z,2.60
2022-11-21T06:28:26.727Z,3.15
2022-11-21T06:30:54.746Z,3.03
2022-11-21T06:33:22.868Z,3.03
2022-11-21T06:35:52.155Z,2.63
2022-11-21T06:38:20.227Z,3.00
2022-11-21T06:40:48.190Z,3.15
2022-11-21T06:43:16.245Z,2.72
2022-11-21T06:45:44.121Z,2.60
2022-11-21T06:48:12.056Z,2.83
2022-11-21T06:50:39.986Z,2.70
2022-11-21T06:53:09.299Z,2.92
2022-11-21T06:55:37.304Z,3.42
2022-11-21T06:58:05.182Z,2.75
2022-11-21T07:00:33.109Z,2.70
2022-11-21T07:03:03.454Z,2.80
2022-11-21T07:05:32.313Z,2.40
2022-11-21T07:08:00.667Z,2.78
2022-11-21T07:10:31.550Z,2.60
2022-11-21T07:13:17.307Z,2.40
2022-11-21T07:15:46.685Z,2.75
2022-11-21T07:18:15.124Z,2.72
2022-11-21T07:20:43.114Z,2.70
2022-11-21T07:23:11.204Z,2.70
2022-11-21T07:25:40.766Z,2.50
2022-11-21T07:28:09.926Z,2.80
2022-11-21T07:30:38.299Z,2.50
2022-11-21T07:33:07.594Z,2.65
2022-11-21T07:35:35.623Z,2.40
2022-11-21T07:38:04.414Z,2.78
2022-11-21T07:40:34.703Z,2.75
2022-11-21T07:43:10.513Z,2.42
2022-11-21T07:45:39.227Z,2.53
2022-11-21T07:48:08.417Z,2.50
2022-11-21T07:50:36.454Z,2.28
2022-11-21T07:53:06.285Z,2.13
2022-11-21T07:55:40.231Z,2.50
2022-11-21T07:58:11.508Z,2.50
2022-11-21T08:00:42.881Z,2.10
2022-11-21T08:03:12.629Z,2.05
2022-11-21T08:05:42.333Z,1.80
2022-11-21T08:08:11.233Z,2.17
2022-11-21T08:10:40.282Z,1.95
2022-11-21T08:13:08.210Z,2.50
2022-11-21T08:15:38.069Z,1.83
2022-11-21T08:18:10.385Z,2.22
2022-11-21T08:20:38.678Z,1.90
2022-11-21T08:23:07.620Z,1.90
2022-11-21T08:25:35.971Z,1.95
2022-11-21T08:28:04.146Z,1.88
2022-11-21T08:30:32.636Z,1.55
2022-11-21T08:33:02.639Z,1.58
2022-11-21T08:35:31.728Z,1.55
2022-11-21T08:38:00.830Z,1.50
2022-11-21T08:40:30.288Z,1.50
2022-11-21T08:42:58.910Z,1.60
2022-11-21T08:45:27.324Z,1.17
2022-11-21T08:47:55.759Z,1.58
2022-11-21T08:50:25.610Z,1.30
2022-11-21T08:52:53.566Z,1.17
2022-11-21T08:55:23.117Z,1.40
2022-11-21T08:57:51.093Z,1.30
2022-11-21T09:00:19.211Z,1.25
2022-11-21T09:02:47.144Z,1.20
2022-11-21T09:05:15.264Z,0.85
2022-11-21T09:07:44.649Z,1.20
2022-11-21T09:10:12.925Z,0.90
2022-11-21T09:12:40.918Z,1.00
2022-11-21T09:15:29.351Z,0.82
2022-11-21T09:18:04.577Z,1.30
2022-11-21T09:20:34.309Z,0.95
2022-11-21T09:23:06.891Z,2.00
2022-11-21T09:25:35.286Z,1.23
2022-11-21T09:28:04.218Z,1.00
2022-11-21T09:30:32.135Z,0.95
2022-11-21T09:33:01.959Z,1.10
2022-11-21T09:35:29.948Z,1.13
2022-11-21T09:37:58.735Z,1.25
2022-11-21T09:40:30.284Z,0.93
2022-11-21T09:43:11.495Z,1.23
2022-11-21T09:45:46.282Z,0.80
2022-11-21T09:48:18.675Z,1.00
2022-11-21T09:50:53.931Z,1.02
2022-11-21T09:53:27.373Z,1.00
2022-11-21T09:56:00.026Z,1.02
2022-11-21T09:58:33.146Z,1.35
2022-11-21T10:01:01.342Z,1.13
2022-11-21T10:03:32.719Z,0.70
2022-11-21T10:06:04.070Z,0.95
2022-11-21T10:08:42.823Z,0.85
2022-11-21T10:11:22.559Z,0.80
2022-11-21T10:14:10.834Z,0.90
2022-11-21T10:16:45.645Z,1.15
2022-11-21T10:19:28.620Z,0.90
2022-11-21T10:22:09.623Z,1.20
2022-11-21T10:24:47.528Z,1.00
2022-11-21T10:27:22.948Z,0.90
2022-11-21T10:29:55.590Z,1.10
2022-11-21T10:32:27.078Z,0.80
2022-11-21T10:35:00.120Z,0.90
2022-11-21T10:37:36.406Z,0.68
2022-11-21T10:40:16.186Z,0.93
2022-11-21T10:42:52.771Z,1.08
2022-11-21T10:45:20.330Z,1.05
2022-11-21T10:47:50.273Z,1.33
2022-11-21T10:50:38.939Z,1.05
2022-11-21T10:53:33.723Z,1.00
2022-11-21T10:56:04.369Z,1.00
2022-11-21T10:58:45.394Z,1.33
2022-11-21T11:01:25.866Z,1.45
2022-11-21T11:04:27.793Z,1.42
2022-11-21T11:07:00.098Z,1.20
2022-11-21T11:09:31.660Z,1.15
2022-11-21T11:12:25.473Z,1.40
2022-11-21T11:14:58.137Z,1.60
2022-11-21T11:17:31.258Z,1.25
2022-11-21T11:20:05.566Z,1.17
2022-11-21T11:22:33.523Z,1.42
2022-11-21T11:25:04.954Z,1.17
2022-11-21T11:27:32.962Z,1.90
2022-11-21T11:30:08.559Z,1.35
2022-11-21T11:32:41.899Z,1.40
2022-11-21T11:35:21.727Z,1.13
2022-11-21T11:38:00.258Z,1.10
2022-11-21T11:40:34.070Z,1.40
2022-11-21T11:43:38.303Z,1.45
2022-11-21T11:46:33.710Z,0.95
2022-11-21T11:49:20.383Z,1.13
2022-11-21T11:51:54.541Z,1.20
2022-11-21T11:54:26.355Z,1.40
2022-11-21T11:56:55.133Z,1.20
2022-11-21T11:59:29.751Z,1.48
2022-11-21T12:02:08.899Z,1.00
2022-11-21T12:04:48.911Z,1.40
2022-11-21T12:10:19.177Z,1.20
2022-11-21T12:12:50.639Z,1.20
2022-11-21T12:15:41.178Z,1.27
2022-11-21T12:18:17.593Z,1.20
2022-11-21T12:20:55.190Z,1.20
2022-11-21T12:23:26.362Z,1.33
2022-11-21T12:26:07.541Z,2.17
2022-11-21T12:28:43.995Z,2.28
2022-11-21T12:31:22.382Z,2.13
2022-11-21T12:33:59.847Z,1.85
2022-11-21T12:36:36.281Z,1.98
2022-11-21T12:39:43.143Z,2.17
2022-11-21T12:42:35.582Z,1.80
2022-11-21T12:45:16.960Z,1.73
2022-11-21T12:48:22.552Z,1.80
2022-11-21T12:51:19.676Z,1.42
2022-11-21T12:54:14.384Z,1.25
2022-11-21T12:56:50.428Z,1.00
2022-11-21T12:59:20.928Z,0.95
2022-11-21T13:01:56.315Z,0.82
2022-11-21T13:04:29.940Z,1.20
2022-11-21T13:07:00.504Z,1.42
2022-11-21T13:09:31.637Z,0.85
2022-11-21T13:12:05.026Z,0.90
2022-11-21T13:14:43.795Z,0.88
2022-11-21T13:17:21.937Z,0.80
2022-11-21T13:19:55.815Z,0.80
2022-11-21T13:22:50.729Z,0.80
2022-11-21T13:25:39.418Z,0.90
2022-11-21T13:28:38.294Z,0.90
2022-11-21T13:31:29.088Z,0.68
2022-11-21T13:33:57.400Z,0.77
2022-11-21T13:36:44.170Z,0.80
2022-11-21T13:39:40.155Z,0.75
2022-11-21T13:42:32.951Z,1.00
2022-11-21T13:45:40.428Z,0.60
2022-11-21T13:48:43.774Z,0.60
2022-11-21T13:51:34.553Z,0.60
2022-11-21T13:54:23.372Z,0.77
2022-11-21T13:57:12.215Z,0.80
2022-11-21T14:00:02.329Z,0.80
2022-11-21T14:02:59.910Z,0.80
2022-11-21T14:05:43.960Z,0.68
2022-11-21T14:08:20.300Z,1.05
2022-11-21T14:10:49.593Z,0.80
2022-11-21T14:13:29.168Z,0.68
2022-11-21T14:16:19.011Z,0.70
2022-11-21T14:18:48.125Z,1.10
2022-11-21T14:21:22.432Z,1.33
2022-11-21T14:23:51.705Z,1.00
2022-11-21T14:26:22.119Z,1.20
2022-11-21T14:28:52.213Z,1.58
2022-11-21T14:31:20.310Z,1.30
2022-11-21T14:33:49.593Z,1.17
2022-11-21T14:36:21.207Z,1.20
2022-11-21T14:39:13.704Z,1.00
2022-11-21T14:41:40.418Z,1.10
2022-11-21T14:44:18.814Z,1.75
2022-11-21T14:46:47.910Z,1.20
2022-11-21T14:49:29.866Z,1.17
2022-11-21T14:52:05.355Z,1.30
2022-11-21T14:54:46.784Z,1.30
2022-11-21T14:57:31.471Z,1.25
2022-11-21T15:00:01.712Z,1.05
2022-11-21T15:02:32.643Z,1.20
2022-11-21T15:05:03.492Z,1.25
2022-11-21T15:07:41.246Z,1.40
2022-11-21T15:10:30.183Z,1.23
2022-11-21T15:13:03.177Z,1.15
2022-11-21T15:15:34.654Z,0.80
2022-11-21T15:18:26.383Z,1.10
2022-11-21T15:20:55.431Z,1.20
2022-11-21T15:23:31.145Z,1.30
2022-11-21T15:26:01.529Z,1.15
2022-11-21T15:28:30.135Z,1.05
2022-11-21T15:31:19.135Z,0.93
2022-11-21T15:34:27.661Z,1.10
2022-11-21T15:37:03.618Z,1.10
2022-11-21T15:39:32.308Z,1.15
2022-11-21T15:42:35.835Z,1.20
2022-11-21T15:45:20.532Z,1.10
2022-11-21T15:47:50.080Z,1.10
2022-11-21T15:50:18.724Z,1.20
2022-11-21T15:52:48.303Z,1.17
2022-11-21T15:55:36.133Z,1.00
2022-11-21T15:58:04.116Z,1.00
2022-11-21T16:00:32.016Z,0.90
2022-11-21T16:03:01.335Z,1.00
2022-11-21T16:05:29.430Z,0.73
2022-11-21T16:07:57.332Z,0.90
2022-11-21T16:10:28.029Z,0.80
2022-11-21T16:12:56.542Z,0.70
2022-11-21T16:15:24.839Z,0.80
2022-11-21T16:17:53.691Z,0.75
2022-11-21T16:20:23.059Z,1.05
2022-11-21T16:22:51.067Z,0.80
2022-11-21T16:25:19.009Z,0.70
2022-11-21T16:27:47.274Z,0.75
2022-11-21T16:30:15.946Z,0.80
2022-11-21T16:32:43.815Z,0.60
2022-11-21T16:35:11.732Z,1.67
2022-11-21T16:37:41.524Z,0.90
2022-11-21T16:40:11.099Z,1.20
2022-11-21T16:42:39.049Z,1.48
2022-11-21T16:45:07.582Z,1.95
2022-11-21T16:47:37.196Z,1.08
2022-11-21T16:50:05.865Z,1.35
2022-11-21T16:52:35.897Z,1.60
2022-11-21T16:55:05.907Z,1.05
2022-11-21T16:57:35.316Z,0.90
2022-11-21T17:00:03.637Z,1.02
2022-11-21T17:02:31.784Z,1.90
2022-11-21T17:04:59.631Z,2.17
2022-11-21T17:07:27.714Z,1.77
2022-11-21T17:09:55.681Z,1.73
2022-11-21T17:12:25.028Z,2.42
2022-11-21T17:14:52.947Z,1.95
2022-11-21T17:17:20.803Z,1.60
2022-11-21T17:19:48.923Z,1.83
2022-11-21T17:22:21.526Z,1.80
2022-11-21T17:24:53.162Z,1.75
2022-11-21T17:27:21.611Z,1.85
2022-11-21T17:29:51.172Z,1.67
2022-11-21T17:32:19.094Z,1.77
2022-11-21T17:34:46.970Z,1.70
2022-11-21T17:37:14.946Z,1.60
2022-11-21T17:39:42.808Z,1.60
2022-11-21T17:42:10.759Z,1.65
2022-11-21T17:44:38.638Z,2.05
2022-11-21T17:47:07.921Z,1.88
2022-11-21T17:49:37.233Z,1.80
2022-11-21T17:52:06.956Z,1.67
2022-11-21T17:54:35.033Z,1.85
2022-11-21T17:57:02.974Z,2.58
2022-11-21T17:59:31.057Z,1.98
2022-11-21T18:01:59.281Z,2.13
2022-11-21T18:04:28.848Z,2.42
2022-11-21T18:06:57.015Z,1.95
2022-11-21T18:09:24.888Z,2.33
2022-11-21T18:11:52.775Z,2.33
2022-11-21T18:14:20.728Z,2.30
2022-11-21T18:16:53.082Z,2.30
2022-11-21T18:19:22.262Z,2.08
2022-11-21T18:21:51.860Z,2.15
2022-11-21T18:24:19.746Z,2.30
2022-11-21T18:26:47.800Z,2.67
2022-11-21T18:32:04.822Z,2.22
2022-11-21T18:34:32.727Z,2.63
2022-11-21T18:37:02.056Z,2.40
2022-11-21T18:39:30.247Z,2.00
2022-11-21T18:41:58.375Z,1.90
2022-11-21T18:44:26.276Z,2.13
2022-11-21T18:46:54.231Z,1.77
2022-11-21T18:49:22.160Z,1.98
2022-11-21T18:51:50.293Z,1.60
2022-11-21T18:54:19.548Z,1.80
2022-11-21T18:56:47.657Z,1.90
2022-11-21T18:59:15.600Z,1.80
2022-11-21T19:01:43.685Z,1.90
2022-11-21T19:04:11.811Z,2.08
2022-11-21T19:06:39.700Z,1.75
2022-11-21T19:09:08.351Z,2.25
2022-11-21T19:11:37.635Z,1.80
2022-11-21T19:14:05.630Z,1.80
2022-11-21T19:16:34.314Z,1.65
2022-11-21T19:19:33.069Z,2.15
2022-11-21T19:21:53.927Z,1.90
2022-11-21T19:24:21.796Z,1.95
2022-11-21T19:26:51.221Z,2.35
2022-11-21T19:29:19.660Z,1.98
2022-11-21T19:31:47.835Z,1.95
2022-11-21T19:34:17.214Z,2.08
2022-11-21T19:36:46.193Z,2.10
2022-11-21T19:39:14.518Z,2.40
2022-11-21T19:41:42.486Z,2.20
2022-11-21T19:44:12.187Z,2.60
2022-11-21T19:46:40.767Z,2.55
2022-11-21T19:49:11.380Z,2.60
2022-11-21T19:51:41.478Z,3.20
2022-11-21T19:54:12.177Z,3.10
2022-11-21T19:56:40.412Z,3.92
2022-11-21T19:59:08.805Z,3.53
2022-11-21T20:01:39.749Z,3.80
2022-11-21T20:04:08.097Z,3.90
2022-11-21T20:06:37.959Z,3.40
2022-11-21T20:09:09.164Z,4.07
2022-11-21T20:11:37.951Z,4.20
2022-11-21T20:14:06.018Z,3.67
2022-11-21T20:16:36.379Z,3.85
2022-11-21T20:19:07.696Z,3.25
2022-11-21T20:21:36.020Z,3.95
2022-11-21T20:24:04.797Z,3.67
2022-11-21T20:26:33.471Z,3.95
2022-11-21T20:29:01.524Z,3.55
2022-11-21T20:31:31.467Z,4.30
2022-11-21T20:34:01.231Z,4.35
2022-11-21T20:36:33.434Z,4.03
2022-11-21T20:39:03.491Z,3.72
2022-11-21T20:41:33.028Z,4.95
2022-11-21T20:44:44.671Z,4.00
2022-11-21T20:46:51.314Z,4.35
2022-11-21T20:49:19.278Z,3.90
2022-11-21T20:54:37.823Z,4.50
2022-11-21T20:57:09.228Z,4.00
2022-11-21T20:59:41.149Z,3.97
2022-11-21T21:02:11.749Z,3.55
2022-11-21T21:04:39.724Z,3.60
2022-11-21T21:07:09.060Z,3.88
2022-11-21T21:09:37.132Z,3.60
2022-11-21T21:12:05.955Z,3.50
2022-11-21T21:14:33.927Z,3.22
2022-11-21T21:17:01.878Z,3.22
2022-11-21T21:19:29.938Z,3.58
2022-11-21T21:21:58.072Z,3.13
2022-11-21T21:24:27.728Z,3.47
2022-11-21T21:26:55.680Z,3.20
2022-11-21T21:29:23.558Z,2.50
2022-11-21T21:31:52.605Z,2.67
2022-11-21T21:34:22.102Z,3.22
2022-11-21T21:36:50.727Z,2.78
2022-11-21T21:39:18.696Z,2.80
2022-11-21T21:41:48.296Z,2.40
2022-11-21T21:44:16.904Z,2.83
2022-11-21T21:46:45.300Z,4.18
2022-11-21T21:49:13.682Z,2.65
2022-11-21T21:51:41.857Z,2.67
2022-11-21T21:54:17.611Z,2.85
2022-11-21T21:56:47.884Z,2.97
2022-11-21T21:59:18.003Z,2.67
2022-11-21T22:01:46.321Z,2.58
2022-11-21T22:04:14.326Z,2.33
2022-11-21T22:06:42.191Z,2.92
2022-11-21T22:09:10.428Z,2.65
2022-11-21T22:11:39.557Z,2.92
2022-11-21T22:14:12.563Z,2.78
2022-11-21T22:16:41.023Z,2.83
2022-11-21T22:19:09.522Z,2.78
2022-11-21T22:21:38.785Z,2.35
2022-11-21T22:24:28.470Z,2.70
2022-11-21T22:26:56.975Z,2.10
2022-11-21T22:29:26.361Z,2.40
2022-11-21T22:31:54.303Z,2.28
2022-11-21T22:34:22.595Z,2.50
2022-11-21T22:36:50.687Z,2.40
2022-11-21T22:39:18.727Z,2.47
2022-11-21T22:41:46.634Z,2.42
2022-11-21T22:44:14.656Z,2.25
2022-11-21T22:46:43.912Z,2.08
2022-11-21T22:49:11.865Z,2.15
2022-11-21T22:51:39.731Z,2.20
2022-11-21T22:54:07.755Z,2.08
2022-11-21T22:56:36.213Z,2.15
2022-11-21T22:59:04.143Z,2.00
2022-11-21T23:01:34.048Z,1.95
2022-11-21T23:04:03.384Z,2.03
2022-11-21T23:06:31.364Z,2.28
2022-11-21T23:08:59.273Z,2.15
2022-11-21T23:11:29.133Z,2.40
2022-11-21T23:13:57.689Z,2.10
2022-11-21T23:16:26.390Z,2.25
2022-11-21T23:18:55.451Z,2.10
2022-11-21T23:21:24.810Z,2.10
2022-11-21T23:23:52.682Z,2.08
2022-11-21T23:26:21.064Z,2.10
2022-11-21T23:28:49.068Z,2.13
2022-11-21T23:31:17.232Z,1.92
2022-11-21T23:33:45.473Z,2.05
2022-11-21T23:36:13.331Z,2.00
2022-11-21T23:38:42.888Z,1.83
2022-11-21T23:41:10.782Z,1.88
2022-11-21T23:43:38.741Z,2.25
2022-11-21T23:46:06.673Z,2.03
2022-11-21T23:48:34.563Z,1.90
2022-11-21T23:51:02.466Z,2.05
2022-11-21T23:53:30.367Z,1.55
2022-11-21T23:55:59.885Z,2.10
2022-11-21T23:58:27.876Z,1.90
